Leamington, UT

10:46 PM MDT on August 30, 2015 (GMT -0600)
MesoWest | | Change Station
CLOSE
Current Station
Personal Weather Station
Location: Leamington, UT
Elevation: 5201 ft
Nearby Weather Stations

Elev 5201 ft 39.71 °N, 112.21 °W | Updated 1 hour ago

Partly Cloudy
Partly Cloudy
80.0 °F
Feels Like 80.0 °F
N
255.0
Wind Variable Wind from North
Gusts 255.0 mph

Today
High -- | Low -- °F
--% Chance of Precip.
Yesterday
High -- | Low -- °F
Precip. -- in
6:54 AM 8:03 PM
Full, 97% visible
Pressure 29.97 in
Visibility 10.0 miles
Clouds Few 12000 ft
Dew Point Not available.
Humidity Not available.
Rainfall in
Snow Depth Not available.
UV 0 out of 12
Pollen 8.90 out of 12
Air Quality Not available.
Flu Activity Not available.
METAR KPVU 310435Z AUTO 16008KT 10SM FEW120 19/11 A2997 RMK AO1
Pressure 29.97 in
Visibility 10.0 miles
Clouds Few 12000 ft
Dew Point Not available.
Humidity Not available.
Rainfall in
Snow Depth Not available.
UV 0 out of 12
Pollen 8.90 out of 12
Air Quality Not available.
Flu Activity Not available.
METAR KPVU 310435Z AUTO 16008KT 10SM FEW120 19/11 A2997 RMK AO1

10-Day Weather Forecast

×

Almanac

Astronomy

Aug. 30, 2015 Rise Set
Actual Time
Civil Twilight
Nautical Twilight
Astronomical Twilight
Moon
Length of Visible Light
Length of Day
Tomorrow will be .
, % of the Moon is Illuminated

Today's Extremes

State Highs State Lows

Community

WunderPhotos

Upload Photos

1,851,207 photos uploaded!

WunderBlogs® & News

Nearby

Air Quality

  Air Quality AQ Index Pollutant
Not available.

Snow Depth

Station Depth Elevation

Earthquake Activity

City Distance Mag. Time & Date
Minimum magnitude displayed is 2.5.

Coastal Water Temperatures

Place Temperature

Stations

Nearby Weather Stations

Station Location Temp. Windchill Dew Point Humidity Wind Precip. Elev Updated Type